createdAt,value
2022-12-03T00:04:23.370Z,2.00
2022-12-03T00:09:26.797Z,2.00
2022-12-03T00:14:30.163Z,1.90
2022-12-03T00:19:34.853Z,1.90
2022-12-03T00:24:38.313Z,1.90
2022-12-03T00:29:41.604Z,1.90
2022-12-03T00:34:46.350Z,1.90
2022-12-03T00:39:49.663Z,1.80
2022-12-03T00:44:53.366Z,1.70
2022-12-03T00:49:59.633Z,1.60
2022-12-03T00:55:10.804Z,1.60
2022-12-03T01:00:15.598Z,1.50
2022-12-03T01:05:22.731Z,1.50
2022-12-03T01:10:37.642Z,1.40
2022-12-03T01:16:06.783Z,1.50
2022-12-03T01:21:11.587Z,1.50
2022-12-03T01:26:15.054Z,1.60
2022-12-03T01:31:36.127Z,1.60
2022-12-03T01:36:40.944Z,1.60
2022-12-03T01:41:54.508Z,1.60
2022-12-03T01:47:00.103Z,1.60
2022-12-03T01:52:13.057Z,1.60
2022-12-03T01:57:25.088Z,1.70
2022-12-03T02:02:30.866Z,1.60
2022-12-03T02:07:41.832Z,1.60
2022-12-03T02:12:59.146Z,1.60
2022-12-03T02:18:03.332Z,1.60
2022-12-03T02:23:14.735Z,1.50
2022-12-03T02:28:23.298Z,1.50
2022-12-03T02:33:29.609Z,1.50
2022-12-03T02:38:35.779Z,1.60
2022-12-03T02:43:51.488Z,1.60
2022-12-03T02:48:54.909Z,1.70
2022-12-03T02:53:58.570Z,1.70
2022-12-03T02:59:06.734Z,1.60
2022-12-03T03:04:10.153Z,1.60
2022-12-03T03:09:26.205Z,1.60
2022-12-03T03:14:53.810Z,1.60
2022-12-03T03:20:23.205Z,1.60
2022-12-03T03:25:26.473Z,1.60
2022-12-03T03:30:31.100Z,1.60
2022-12-03T03:35:43.323Z,1.60
2022-12-03T03:40:50.218Z,1.60
2022-12-03T03:45:55.671Z,1.60
2022-12-03T03:50:59.333Z,1.50
2022-12-03T03:56:03.033Z,1.60
2022-12-03T04:01:09.804Z,1.60
2022-12-03T04:06:13.218Z,1.60
2022-12-03T04:11:34.782Z,1.60
2022-12-03T04:16:39.598Z,1.60
2022-12-03T04:22:00.534Z,1.70
2022-12-03T04:27:20.915Z,1.70
2022-12-03T04:32:42.363Z,1.70
2022-12-03T04:37:45.783Z,1.70
2022-12-03T04:42:49.210Z,1.60
2022-12-03T04:47:53.862Z,1.70
2022-12-03T04:52:57.132Z,1.70
2022-12-03T04:58:00.522Z,1.70
2022-12-03T05:03:05.375Z,1.70
2022-12-03T05:08:08.869Z,1.70
2022-12-03T05:13:12.290Z,1.70
2022-12-03T05:18:18.569Z,1.70
2022-12-03T05:23:21.988Z,1.80
2022-12-03T05:28:25.219Z,1.80
2022-12-03T05:33:29.745Z,1.80
2022-12-03T05:38:33.254Z,1.80
2022-12-03T05:43:36.542Z,1.80
2022-12-03T05:48:41.115Z,1.80
2022-12-03T05:53:44.465Z,1.80
2022-12-03T05:58:47.831Z,1.80
2022-12-03T06:03:53.014Z,1.80
2022-12-03T06:08:56.548Z,1.80
2022-12-03T06:14:02.066Z,1.90
2022-12-03T06:19:07.949Z,1.90
2022-12-03T06:24:11.425Z,1.90
2022-12-03T06:29:14.736Z,1.90
2022-12-03T06:34:19.487Z,1.90
2022-12-03T06:39:23.169Z,1.90
2022-12-03T06:44:26.596Z,1.90
2022-12-03T06:49:31.321Z,1.90
2022-12-03T06:54:34.720Z,1.90
2022-12-03T06:59:55.238Z,1.90
2022-12-03T07:05:03.733Z,1.90
2022-12-03T07:10:11.246Z,1.90
2022-12-03T07:15:15.810Z,1.90
2022-12-03T07:20:21.155Z,1.90
2022-12-03T07:25:24.752Z,1.90
2022-12-03T07:30:30.105Z,1.90
2022-12-03T07:35:35.931Z,2.00
2022-12-03T07:40:40.307Z,2.00
2022-12-03T07:45:43.743Z,2.10
2022-12-03T07:50:49.640Z,2.10
2022-12-03T07:55:59.584Z,2.10
2022-12-03T08:01:26.610Z,2.20
2022-12-03T08:07:29.476Z,2.30
2022-12-03T08:12:41.135Z,2.30
2022-12-03T08:17:58.756Z,2.40
2022-12-03T08:23:11.217Z,2.40
2022-12-03T08:28:20.053Z,2.30
2022-12-03T08:33:36.573Z,2.40
2022-12-03T08:38:40.037Z,2.50
2022-12-03T08:43:59.557Z,2.50
2022-12-03T08:49:03.001Z,2.50
2022-12-03T08:54:21.080Z,2.60
2022-12-03T08:59:33.957Z,2.60
2022-12-03T09:04:39.795Z,2.60
2022-12-03T09:09:47.505Z,2.60
2022-12-03T09:14:52.522Z,2.70
2022-12-03T09:19:56.276Z,2.90
2022-12-03T09:24:59.481Z,3.00
2022-12-03T09:30:05.185Z,3.20
2022-12-03T09:35:10.028Z,3.20
2022-12-03T09:40:14.768Z,3.20
2022-12-03T09:45:19.818Z,3.10
2022-12-03T09:50:26.473Z,3.10
2022-12-03T09:55:36.117Z,3.00
2022-12-03T10:00:42.678Z,2.90
2022-12-03T10:05:48.947Z,2.90
2022-12-03T10:10:56.683Z,2.80
2022-12-03T10:16:11.681Z,3.00
2022-12-03T10:52:54.311Z,3.30
2022-12-03T10:57:58.399Z,3.10
2022-12-03T11:03:01.869Z,3.10
2022-12-03T11:08:20.756Z,3.10
2022-12-03T11:13:47.781Z,3.10
2022-12-03T11:19:03.443Z,3.20
2022-12-03T11:24:22.662Z,3.20
2022-12-03T11:29:57.112Z,3.30
2022-12-03T11:35:00.472Z,3.20
2022-12-03T11:40:09.728Z,3.10
2022-12-03T11:45:24.439Z,3.10
2022-12-03T12:35:33.034Z,2.70
2022-12-03T12:40:38.726Z,3.10
2022-12-03T12:45:43.924Z,3.10
2022-12-03T12:50:52.538Z,3.00
2022-12-03T12:55:58.404Z,2.80
2022-12-03T13:01:07.006Z,2.70
2022-12-03T13:06:16.178Z,2.80
2022-12-03T13:11:35.556Z,2.80
2022-12-03T13:16:39.850Z,2.80
2022-12-03T13:21:46.127Z,2.70
2022-12-03T13:26:49.445Z,2.60
2022-12-03T13:31:54.875Z,2.60
2022-12-03T13:37:01.089Z,2.70
2022-12-03T13:42:35.726Z,2.60
2022-12-03T13:47:39.061Z,2.50
2022-12-03T13:52:43.823Z,2.60
2022-12-03T13:57:48.050Z,2.50
2022-12-03T14:02:51.582Z,2.50
2022-12-03T14:07:58.270Z,2.50
2022-12-03T14:13:01.634Z,2.40
2022-12-03T14:18:05.347Z,2.40
2022-12-03T14:23:10.185Z,2.30
2022-12-03T14:28:13.624Z,2.20
2022-12-03T14:33:17.002Z,2.10
2022-12-03T14:38:22.121Z,2.20
2022-12-03T14:43:26.439Z,2.10
2022-12-03T14:48:29.839Z,2.10
2022-12-03T14:53:37.608Z,2.10
2022-12-03T14:58:41.052Z,2.00
2022-12-03T15:03:44.457Z,2.00
2022-12-03T15:08:49.277Z,1.90
2022-12-03T15:13:53.719Z,1.90
2022-12-03T15:18:57.125Z,1.90
2022-12-03T15:29:29.404Z,1.80
2022-12-03T15:34:32.881Z,1.80
2022-12-03T15:39:52.700Z,1.70
2022-12-03T15:44:55.984Z,1.70
2022-12-03T15:49:59.270Z,1.70
2022-12-03T15:55:07.911Z,1.70
2022-12-03T16:00:15.108Z,1.70
2022-12-03T16:05:18.741Z,1.70
2022-12-03T16:10:23.481Z,1.70
2022-12-03T16:15:27.521Z,1.70
2022-12-03T16:20:31.429Z,1.70
2022-12-03T16:25:36.103Z,1.60
2022-12-03T16:30:39.654Z,1.50
2022-12-03T16:35:43.105Z,1.50
2022-12-03T16:40:47.886Z,1.50
2022-12-03T16:46:20.398Z,1.40
2022-12-03T16:51:25.542Z,1.40
2022-12-03T16:56:30.325Z,1.40
2022-12-03T17:01:34.858Z,1.30
2022-12-03T17:06:38.670Z,1.30
2022-12-03T17:11:43.359Z,1.30
2022-12-03T17:16:46.773Z,1.20
2022-12-03T17:21:50.105Z,1.20
2022-12-03T17:26:55.090Z,1.20
2022-12-03T17:31:58.508Z,1.20
2022-12-03T17:37:03.310Z,1.10
2022-12-03T17:42:12.026Z,1.20
2022-12-03T17:47:16.498Z,1.10
2022-12-03T17:52:19.921Z,1.00
2022-12-03T17:57:24.861Z,1.10
2022-12-03T18:02:28.194Z,1.10
2022-12-03T18:07:31.728Z,1.00
2022-12-03T18:12:36.853Z,1.00
2022-12-03T18:17:41.290Z,1.00
2022-12-03T18:22:45.580Z,1.00
2022-12-03T18:27:50.307Z,1.00
2022-12-03T18:32:53.645Z,1.00
2022-12-03T18:37:57.027Z,1.00
2022-12-03T18:43:01.781Z,1.00
2022-12-03T18:48:15.633Z,1.10
2022-12-03T18:53:20.614Z,0.90
2022-12-03T18:58:26.351Z,1.00
2022-12-03T19:03:29.906Z,1.00
2022-12-03T19:08:33.328Z,1.00
2022-12-03T19:13:38.161Z,1.00
2022-12-03T19:18:41.798Z,1.00
2022-12-03T19:24:09.894Z,1.00
2022-12-03T19:29:10.818Z,1.00
2022-12-03T19:34:14.417Z,1.00
2022-12-03T19:39:17.727Z,1.00
2022-12-03T19:44:22.640Z,1.00
2022-12-03T19:49:27.733Z,1.00
2022-12-03T19:54:31.040Z,0.90
2022-12-03T19:59:36.763Z,0.90
2022-12-03T20:04:40.265Z,0.90
2022-12-03T20:09:43.681Z,1.00
2022-12-03T20:14:50.005Z,1.00
2022-12-03T20:19:53.669Z,1.00
2022-12-03T20:24:57.323Z,0.90
2022-12-03T20:30:02.198Z,0.90
2022-12-03T20:35:06.445Z,0.90
2022-12-03T20:40:10.849Z,0.90
2022-12-03T20:50:42.822Z,0.90
2022-12-03T20:55:46.165Z,1.00
2022-12-03T21:00:51.083Z,0.90
2022-12-03T21:06:00.477Z,0.90
2022-12-03T21:11:06.363Z,0.80
2022-12-03T21:16:13.319Z,0.90
2022-12-03T21:21:18.360Z,0.90
2022-12-03T21:26:23.067Z,0.90
2022-12-03T21:31:30.192Z,0.90
2022-12-03T21:36:33.966Z,0.90
2022-12-03T21:41:37.621Z,0.90
2022-12-03T21:47:11.016Z,0.90
2022-12-03T21:52:06.643Z,0.90
2022-12-03T21:57:10.133Z,0.80
2022-12-03T22:02:15.497Z,0.80
2022-12-03T22:07:19.992Z,0.90
2022-12-03T22:17:52.896Z,0.90
2022-12-03T22:22:56.351Z,0.80
2022-12-03T22:27:59.704Z,0.80
2022-12-03T22:33:04.796Z,0.90
2022-12-03T22:38:09.140Z,0.90
2022-12-03T22:43:12.471Z,0.90
2022-12-03T22:48:17.346Z,0.90
2022-12-03T22:53:21.536Z,0.90
2022-12-03T22:58:25.124Z,1.00
2022-12-03T23:03:30.172Z,0.90
2022-12-03T23:08:33.538Z,0.90
2022-12-03T23:13:37.353Z,0.90
2022-12-03T23:18:41.981Z,0.80
2022-12-03T23:23:47.410Z,0.90
2022-12-03T23:28:51.690Z,0.80
2022-12-03T23:33:57.146Z,0.80
2022-12-03T23:39:00.684Z,0.90
2022-12-03T23:44:04.152Z,0.90
2022-12-03T23:49:09.233Z,0.90
2022-12-03T23:54:13.310Z,0.80
2022-12-03T23:59:16.760Z,0.90
